sensor_id;sensor_type;location;lat;lon;timestamp;pressure;altitude;pressure_sealevel;temperature;humidity
34370;BME280;20635;55.812;37.560;2023-07-31T00:00:06;98699.22;;;26.02;54.24
34370;BME280;20635;55.812;37.560;2023-07-31T00:02:34;98707.66;;;26.02;54.14
34370;BME280;20635;55.812;37.560;2023-07-31T00:05:00;98705.22;;;26.00;54.14
34370;BME280;20635;55.812;37.560;2023-07-31T00:07:26;98712.47;;;26.01;54.14
34370;BME280;20635;55.812;37.560;2023-07-31T00:09:51;98709.66;;;26.01;54.30
34370;BME280;20635;55.812;37.560;2023-07-31T00:12:19;98710.84;;;26.00;54.26
34370;BME280;20635;55.812;37.560;2023-07-31T00:14:44;98708.03;;;26.00;54.34
34370;BME280;20635;55.812;37.560;2023-07-31T00:17:11;98708.41;;;25.99;54.25
34370;BME280;20635;55.812;37.560;2023-07-31T00:19:37;98709.22;;;25.99;54.18
34370;BME280;20635;55.812;37.560;2023-07-31T00:22:02;98710.03;;;26.00;54.27
34370;BME280;20635;55.812;37.560;2023-07-31T00:24:28;98710.41;;;25.98;54.27
34370;BME280;20635;55.812;37.560;2023-07-31T00:26:54;98705.59;;;25.99;54.07
34370;BME280;20635;55.812;37.560;2023-07-31T00:29:20;98710.72;;;25.97;54.25
34370;BME280;20635;55.812;37.560;2023-07-31T00:31:45;98712.34;;;25.98;54.15
34370;BME280;20635;55.812;37.560;2023-07-31T00:34:11;98713.53;;;25.97;54.03
34370;BME280;20635;55.812;37.560;2023-07-31T00:36:37;98710.72;;;25.97;54.13
34370;BME280;20635;55.812;37.560;2023-07-31T00:39:02;98715.53;;;25.96;54.12
34370;BME280;20635;55.812;37.560;2023-07-31T00:41:30;98718.34;;;25.96;54.22
34370;BME280;20635;55.812;37.560;2023-07-31T00:43:55;98711.09;;;25.95;54.25
34370;BME280;20635;55.812;37.560;2023-07-31T00:46:21;98707.47;;;25.95;54.16
34370;BME280;20635;55.812;37.560;2023-07-31T00:48:47;98712.28;;;25.94;54.05
34370;BME280;20635;55.812;37.560;2023-07-31T00:51:13;98705.84;;;25.94;54.18
34370;BME280;20635;55.812;37.560;2023-07-31T00:53:39;98709.47;;;25.94;54.05
34370;BME280;20635;55.812;37.560;2023-07-31T00:56:06;98696.59;;;25.93;53.87
34370;BME280;20635;55.812;37.560;2023-07-31T00:58:31;98703.38;;;25.92;54.07
34370;BME280;20635;55.812;37.560;2023-07-31T01:00:57;98699.78;;;25.92;53.90
34370;BME280;20635;55.812;37.560;2023-07-31T01:03:23;98701.41;;;25.93;54.10
34370;BME280;20635;55.812;37.560;2023-07-31T01:05:54;98698.97;;;25.91;54.06
34370;BME280;20635;55.812;37.560;2023-07-31T01:10:55;98703.75;;;25.91;53.98
34370;BME280;20635;55.812;37.560;2023-07-31T01:13:21;98704.13;;;25.89;53.93
34370;BME280;20635;55.812;37.560;2023-07-31T01:15:47;98704.13;;;25.89;54.00
34370;BME280;20635;55.812;37.560;2023-07-31T01:18:13;98703.28;;;25.89;54.00
34370;BME280;20635;55.812;37.560;2023-07-31T01:20:39;98702.94;;;25.90;53.94
34370;BME280;20635;55.812;37.560;2023-07-31T01:23:28;98708.91;;;25.89;53.86
34370;BME280;20635;55.812;37.560;2023-07-31T01:28:25;98696.41;;;25.86;53.79
34370;BME280;20635;55.812;37.560;2023-07-31T01:30:53;98704.03;;;25.86;53.61
34370;BME280;20635;55.812;37.560;2023-07-31T01:33:21;98702.84;;;25.87;53.72
34370;BME280;20635;55.812;37.560;2023-07-31T01:35:47;98704.03;;;25.86;53.81
34370;BME280;20635;55.812;37.560;2023-07-31T01:38:14;98706.84;;;25.86;53.98
34370;BME280;20635;55.812;37.560;2023-07-31T01:40:41;98708.81;;;25.85;53.81
34370;BME280;20635;55.812;37.560;2023-07-31T01:43:08;98703.56;;;25.84;53.82
34370;BME280;20635;55.812;37.560;2023-07-31T01:45:34;98705.22;;;25.85;53.95
34370;BME280;20635;55.812;37.560;2023-07-31T01:48:00;98705.53;;;25.83;53.74
34370;BME280;20635;55.812;37.560;2023-07-31T01:50:26;98699.13;;;25.83;53.70
34370;BME280;20635;55.812;37.560;2023-07-31T01:52:51;98709.53;;;25.82;53.65
34370;BME280;20635;55.812;37.560;2023-07-31T01:55:17;98703.91;;;25.82;53.75
34370;BME280;20635;55.812;37.560;2023-07-31T01:57:43;98703.91;;;25.82;53.81
34370;BME280;20635;55.812;37.560;2023-07-31T02:00:09;98711.53;;;25.82;53.63
34370;BME280;20635;55.812;37.560;2023-07-31T02:02:38;98707.09;;;25.80;53.73
34370;BME280;20635;55.812;37.560;2023-07-31T02:05:04;98709.91;;;25.80;53.65
34370;BME280;20635;55.812;37.560;2023-07-31T02:07:30;98708.25;;;25.79;53.50
34370;BME280;20635;55.812;37.560;2023-07-31T02:09:56;98708.25;;;25.79;53.65
34370;BME280;20635;55.812;37.560;2023-07-31T02:12:21;98712.22;;;25.78;53.56
34370;BME280;20635;55.812;37.560;2023-07-31T02:14:49;98707.44;;;25.79;53.56
34370;BME280;20635;55.812;37.560;2023-07-31T02:17:14;98708.63;;;25.78;53.56
34370;BME280;20635;55.812;37.560;2023-07-31T02:19:40;98711.44;;;25.78;53.63
34370;BME280;20635;55.812;37.560;2023-07-31T02:22:06;98707.81;;;25.77;53.49
34370;BME280;20635;55.812;37.560;2023-07-31T02:24:32;98715.41;;;25.77;53.56
34370;BME280;20635;55.812;37.560;2023-07-31T02:26:57;98716.22;;;25.77;53.65
34370;BME280;20635;55.812;37.560;2023-07-31T02:29:23;98713.78;;;25.76;53.51
34370;BME280;20635;55.812;37.560;2023-07-31T02:31:49;98710.13;;;25.75;53.56
34370;BME280;20635;55.812;37.560;2023-07-31T02:34:15;98712.09;;;25.75;53.49
34370;BME280;20635;55.812;37.560;2023-07-31T02:36:41;98710.97;;;25.76;53.40
34370;BME280;20635;55.812;37.560;2023-07-31T02:39:07;98701.25;;;25.73;53.57
34370;BME280;20635;55.812;37.560;2023-07-31T02:41:32;98701.25;;;25.73;53.45
34370;BME280;20635;55.812;37.560;2023-07-31T02:43:58;98700.81;;;25.71;53.42
34370;BME280;20635;55.812;37.560;2023-07-31T02:46:24;98704.41;;;25.72;53.41
34370;BME280;20635;55.812;37.560;2023-07-31T02:48:50;98705.22;;;25.72;53.40
34370;BME280;20635;55.812;37.560;2023-07-31T02:51:16;98707.22;;;25.72;53.63
34370;BME280;20635;55.812;37.560;2023-07-31T02:53:42;98710.03;;;25.72;53.55
34370;BME280;20635;55.812;37.560;2023-07-31T02:56:08;98692.72;;;25.70;53.45
34370;BME280;20635;55.812;37.560;2023-07-31T02:58:34;98704.75;;;25.70;53.66
34370;BME280;20635;55.812;37.560;2023-07-31T03:00:59;98699.16;;;25.70;53.34
34370;BME280;20635;55.812;37.560;2023-07-31T03:03:26;98704.75;;;25.70;53.43
34370;BME280;20635;55.812;37.560;2023-07-31T03:05:52;98708.75;;;25.69;53.45
34370;BME280;20635;55.812;37.560;2023-07-31T03:08:18;98707.50;;;25.67;53.50
34370;BME280;20635;55.812;37.560;2023-07-31T03:10:44;98704.69;;;25.67;53.30
34370;BME280;20635;55.812;37.560;2023-07-31T03:13:10;98710.63;;;25.65;53.27
34370;BME280;20635;55.812;37.560;2023-07-31T03:15:35;98711.00;;;25.64;53.08
34370;BME280;20635;55.812;37.560;2023-07-31T03:18:01;98714.97;;;25.63;53.08
34370;BME280;20635;55.812;37.560;2023-07-31T03:20:27;98706.09;;;25.61;53.16
34370;BME280;20635;55.812;37.560;2023-07-31T03:22:52;98708.09;;;25.60;53.11
34370;BME280;20635;55.812;37.560;2023-07-31T03:25:18;98703.19;;;25.57;52.80
34370;BME280;20635;55.812;37.560;2023-07-31T03:27:44;98713.59;;;25.56;52.95
34370;BME280;20635;55.812;37.560;2023-07-31T03:30:10;98701.91;;;25.54;53.09
34370;BME280;20635;55.812;37.560;2023-07-31T03:32:36;98707.06;;;25.52;52.96
34370;BME280;20635;55.812;37.560;2023-07-31T03:35:02;98703.81;;;25.50;53.02
34370;BME280;20635;55.812;37.560;2023-07-31T03:37:28;98706.16;;;25.48;52.86
34370;BME280;20635;55.812;37.560;2023-07-31T03:39:54;98695.28;;;25.47;52.93
34370;BME280;20635;55.812;37.560;2023-07-31T03:42:20;98700.09;;;25.46;52.81
34370;BME280;20635;55.812;37.560;2023-07-31T03:44:46;98696.03;;;25.44;53.04
34370;BME280;20635;55.812;37.560;2023-07-31T03:47:11;98700.78;;;25.43;52.96
34370;BME280;20635;55.812;37.560;2023-07-31T03:49:38;98696.84;;;25.44;53.04
34370;BME280;20635;55.812;37.560;2023-07-31T03:52:03;98700.78;;;25.43;53.16
34370;BME280;20635;55.812;37.560;2023-07-31T03:54:29;98694.38;;;25.43;53.19
34370;BME280;20635;55.812;37.560;2023-07-31T03:56:55;98699.63;;;25.44;53.19
34370;BME280;20635;55.812;37.560;2023-07-31T03:59:22;98692.03;;;25.45;53.31
34370;BME280;20635;55.812;37.560;2023-07-31T04:01:47;98697.28;;;25.46;53.44
34370;BME280;20635;55.812;37.560;2023-07-31T04:04:13;98693.66;;;25.46;53.40
34370;BME280;20635;55.812;37.560;2023-07-31T04:06:39;98693.28;;;25.47;53.38
34370;BME280;20635;55.812;37.560;2023-07-31T04:09:05;98699.72;;;25.48;53.39
34370;BME280;20635;55.812;37.560;2023-07-31T04:11:30;98702.53;;;25.48;53.42
34370;BME280;20635;55.812;37.560;2023-07-31T04:13:56;98706.16;;;25.48;53.76
34370;BME280;20635;55.812;37.560;2023-07-31T04:16:22;98705.00;;;25.49;53.61
34370;BME280;20635;55.812;37.560;2023-07-31T04:18:48;98705.81;;;25.50;53.74
34370;BME280;20635;55.812;37.560;2023-07-31T04:21:13;98715.03;;;25.50;53.53
34370;BME280;20635;55.812;37.560;2023-07-31T04:23:39;98717.84;;;25.50;53.69
34370;BME280;20635;55.812;37.560;2023-07-31T04:26:05;98720.28;;;25.52;53.58
34370;BME280;20635;55.812;37.560;2023-07-31T04:28:31;98712.66;;;25.52;53.60
34370;BME280;20635;55.812;37.560;2023-07-31T04:30:57;98718.66;;;25.51;53.48
34370;BME280;20635;55.812;37.560;2023-07-31T04:33:23;98719.47;;;25.51;53.62
34370;BME280;20635;55.812;37.560;2023-07-31T04:35:52;98714.66;;;25.52;53.70
34370;BME280;20635;55.812;37.560;2023-07-31T04:38:18;98718.75;;;25.54;53.58
34370;BME280;20635;55.812;37.560;2023-07-31T04:40:44;98721.94;;;25.53;53.71
34370;BME280;20635;55.812;37.560;2023-07-31T04:43:10;98717.94;;;25.54;53.67
34370;BME280;20635;55.812;37.560;2023-07-31T04:45:36;98718.28;;;25.52;53.63
34370;BME280;20635;55.812;37.560;2023-07-31T04:48:01;98715.47;;;25.52;53.72
34370;BME280;20635;55.812;37.560;2023-07-31T04:50:27;98719.94;;;25.53;53.72
34370;BME280;20635;55.812;37.560;2023-07-31T04:52:53;98710.72;;;25.53;53.69
34370;BME280;20635;55.812;37.560;2023-07-31T04:55:19;98722.75;;;25.53;53.57
34370;BME280;20635;55.812;37.560;2023-07-31T04:57:44;98730.34;;;25.53;53.57
34370;BME280;20635;55.812;37.560;2023-07-31T05:00:10;98721.56;;;25.54;53.65
34370;BME280;20635;55.812;37.560;2023-07-31T05:02:36;98723.88;;;25.52;53.66
34370;BME280;20635;55.812;37.560;2023-07-31T05:05:02;98718.28;;;25.52;53.65
34370;BME280;20635;55.812;37.560;2023-07-31T05:07:28;98724.38;;;25.54;53.58
34370;BME280;20635;55.812;37.560;2023-07-31T05:09:54;98727.16;;;25.54;53.63
34370;BME280;20635;55.812;37.560;2023-07-31T05:12:20;98731.16;;;25.53;53.64
34370;BME280;20635;55.812;37.560;2023-07-31T05:14:46;98724.38;;;25.54;53.58
34370;BME280;20635;55.812;37.560;2023-07-31T05:17:11;98725.53;;;25.53;53.65
34370;BME280;20635;55.812;37.560;2023-07-31T05:19:37;98720.75;;;25.54;53.56
34370;BME280;20635;55.812;37.560;2023-07-31T05:22:03;98719.94;;;25.53;53.55
34370;BME280;20635;55.812;37.560;2023-07-31T05:24:28;98722.75;;;25.53;53.50
34370;BME280;20635;55.812;37.560;2023-07-31T05:26:55;98723.88;;;25.52;53.56
34370;BME280;20635;55.812;37.560;2023-07-31T05:29:20;98725.53;;;25.53;53.56
34370;BME280;20635;55.812;37.560;2023-07-31T05:31:46;98718.28;;;25.52;53.52
34370;BME280;20635;55.812;37.560;2023-07-31T05:34:12;98730.34;;;25.53;53.51
34370;BME280;20635;55.812;37.560;2023-07-31T05:36:38;98729.50;;;25.52;53.51
34370;BME280;20635;55.812;37.560;2023-07-31T05:39:03;98723.06;;;25.52;53.36
34370;BME280;20635;55.812;37.560;2023-07-31T05:41:32;98726.69;;;25.52;53.52
34370;BME280;20635;55.812;37.560;2023-07-31T05:43:58;98727.53;;;25.53;53.35
34370;BME280;20635;55.812;37.560;2023-07-31T05:46:24;98729.16;;;25.54;53.48
34370;BME280;20635;55.812;37.560;2023-07-31T05:48:49;98731.16;;;25.53;53.43
34370;BME280;20635;55.812;37.560;2023-07-31T05:51:15;98741.56;;;25.53;53.55
34370;BME280;20635;55.812;37.560;2023-07-31T05:53:41;98735.94;;;25.53;53.46
34370;BME280;20635;55.812;37.560;2023-07-31T05:56:07;98735.09;;;25.52;53.45
34370;BME280;20635;55.812;37.560;2023-07-31T05:58:32;98739.56;;;25.53;53.34
34370;BME280;20635;55.812;37.560;2023-07-31T06:00:58;98735.09;;;25.52;53.41
34370;BME280;20635;55.812;37.560;2023-07-31T06:03:24;98736.75;;;25.53;53.35
34370;BME280;20635;55.812;37.560;2023-07-31T06:05:49;98739.56;;;25.53;53.56
34370;BME280;20635;55.812;37.560;2023-07-31T06:08:15;98733.16;;;25.53;53.38
34370;BME280;20635;55.812;37.560;2023-07-31T06:10:41;98729.50;;;25.52;53.31
34370;BME280;20635;55.812;37.560;2023-07-31T06:13:07;98732.31;;;25.52;53.34
34370;BME280;20635;55.812;37.560;2023-07-31T06:15:33;98729.50;;;25.52;53.39
34370;BME280;20635;55.812;37.560;2023-07-31T06:17:59;98733.97;;;25.53;53.35
34370;BME280;20635;55.812;37.560;2023-07-31T06:20:27;98734.78;;;25.54;53.38
34370;BME280;20635;55.812;37.560;2023-07-31T06:22:53;98731.16;;;25.53;53.28
34370;BME280;20635;55.812;37.560;2023-07-31T06:25:19;98735.94;;;25.53;53.16
34370;BME280;20635;55.812;37.560;2023-07-31T06:27:44;98730.34;;;25.53;53.20
34370;BME280;20635;55.812;37.560;2023-07-31T06:30:10;98732.31;;;25.52;53.10
34370;BME280;20635;55.812;37.560;2023-07-31T06:32:36;98734.28;;;25.52;53.18
34370;BME280;20635;55.812;37.560;2023-07-31T06:35:02;98735.09;;;25.52;53.20
34370;BME280;20635;55.812;37.560;2023-07-31T06:37:28;98727.06;;;25.51;53.15
34370;BME280;20635;55.812;37.560;2023-07-31T06:39:56;98733.47;;;25.51;53.12
34370;BME280;20635;55.812;37.560;2023-07-31T06:42:21;98728.69;;;25.52;52.99
34370;BME280;20635;55.812;37.560;2023-07-31T06:44:48;98740.72;;;25.52;52.97
34370;BME280;20635;55.812;37.560;2023-07-31T06:47:13;98748.00;;;25.53;52.89
34370;BME280;20635;55.812;37.560;2023-07-31T06:49:39;98741.91;;;25.51;52.94
34370;BME280;20635;55.812;37.560;2023-07-31T06:52:05;98752.78;;;25.53;53.06
34370;BME280;20635;55.812;37.560;2023-07-31T06:54:31;98745.19;;;25.53;53.07
34370;BME280;20635;55.812;37.560;2023-07-31T06:56:57;98745.19;;;25.53;52.89
34370;BME280;20635;55.812;37.560;2023-07-31T06:59:23;98740.72;;;25.52;53.04
34370;BME280;20635;55.812;37.560;2023-07-31T07:01:49;98739.91;;;25.52;52.97
34370;BME280;20635;55.812;37.560;2023-07-31T07:04:15;98746.31;;;25.52;52.96
34370;BME280;20635;55.812;37.560;2023-07-31T07:06:40;98746.81;;;25.54;52.82
34370;BME280;20635;55.812;37.560;2023-07-31T07:09:06;98745.19;;;25.53;53.00
34370;BME280;20635;55.812;37.560;2023-07-31T07:11:32;98749.63;;;25.54;52.88
34370;BME280;20635;55.812;37.560;2023-07-31T07:13:57;98753.22;;;25.55;52.94
34370;BME280;20635;55.812;37.560;2023-07-31T07:16:23;98756.03;;;25.55;52.96
34370;BME280;20635;55.812;37.560;2023-07-31T07:18:49;98742.00;;;25.55;52.95
34370;BME280;20635;55.812;37.560;2023-07-31T07:21:15;98746.81;;;25.54;52.92
34370;BME280;20635;55.812;37.560;2023-07-31T07:23:42;98745.63;;;25.55;52.78
34370;BME280;20635;55.812;37.560;2023-07-31T07:26:07;98745.63;;;25.55;52.76
34370;BME280;20635;55.812;37.560;2023-07-31T07:28:33;98753.22;;;25.55;52.83
34370;BME280;20635;55.812;37.560;2023-07-31T07:30:59;98748.44;;;25.55;52.92
34370;BME280;20635;55.812;37.560;2023-07-31T07:33:24;98750.06;;;25.56;52.87
34370;BME280;20635;55.812;37.560;2023-07-31T07:35:50;98748.06;;;25.57;52.74
34370;BME280;20635;55.812;37.560;2023-07-31T07:38:16;98740.81;;;25.56;52.82
34370;BME280;20635;55.812;37.560;2023-07-31T07:40:42;98754.03;;;25.55;52.76
34370;BME280;20635;55.812;37.560;2023-07-31T07:43:08;98748.06;;;25.57;52.73
34370;BME280;20635;55.812;37.560;2023-07-31T07:45:34;98755.66;;;25.56;52.82
34370;BME280;20635;55.812;37.560;2023-07-31T07:47:59;98755.66;;;25.56;52.76
34370;BME280;20635;55.812;37.560;2023-07-31T07:50:25;98742.81;;;25.55;52.69
34370;BME280;20635;55.812;37.560;2023-07-31T07:52:51;98749.25;;;25.56;52.70
34370;BME280;20635;55.812;37.560;2023-07-31T07:55:16;98747.25;;;25.56;52.58
34370;BME280;20635;55.812;37.560;2023-07-31T07:57:42;98750.88;;;25.57;52.55
34370;BME280;20635;55.812;37.560;2023-07-31T08:00:09;98759.28;;;25.57;52.56
34370;BME280;20635;55.812;37.560;2023-07-31T08:02:42;98758.94;;;25.59;52.69
34370;BME280;20635;55.812;37.560;2023-07-31T08:05:07;98757.31;;;25.58;52.54
34370;BME280;20635;55.812;37.560;2023-07-31T08:07:33;98763.75;;;25.58;52.73
34370;BME280;20635;55.812;37.560;2023-07-31T08:09:59;98758.13;;;25.58;52.46
34370;BME280;20635;55.812;37.560;2023-07-31T08:12:25;98758.94;;;25.59;52.73
34370;BME280;20635;55.812;37.560;2023-07-31T08:14:51;98754.16;;;25.59;52.49
34370;BME280;20635;55.812;37.560;2023-07-31T08:17:17;98748.91;;;25.58;52.63
34370;BME280;20635;55.812;37.560;2023-07-31T08:19:43;98754.16;;;25.59;52.62
34370;BME280;20635;55.812;37.560;2023-07-31T08:22:09;98756.97;;;25.59;52.51
34370;BME280;20635;55.812;37.560;2023-07-31T08:24:35;98754.16;;;25.59;52.50
34370;BME280;20635;55.812;37.560;2023-07-31T08:27:00;98756.97;;;25.59;52.50
34370;BME280;20635;55.812;37.560;2023-07-31T08:29:26;98752.97;;;25.60;52.65
34370;BME280;20635;55.812;37.560;2023-07-31T08:31:53;98760.56;;;25.60;52.37
34370;BME280;20635;55.812;37.560;2023-07-31T08:34:18;98760.56;;;25.60;52.64
34370;BME280;20635;55.812;37.560;2023-07-31T08:36:44;98756.97;;;25.59;52.36
34370;BME280;20635;55.812;37.560;2023-07-31T08:39:10;98761.75;;;25.59;52.45
34370;BME280;20635;55.812;37.560;2023-07-31T08:41:39;98763.38;;;25.60;52.47
34370;BME280;20635;55.812;37.560;2023-07-31T08:44:05;98763.38;;;25.60;52.31
34370;BME280;20635;55.812;37.560;2023-07-31T08:46:32;98764.19;;;25.60;52.55
34370;BME280;20635;55.812;37.560;2023-07-31T08:48:58;98766.19;;;25.60;52.26
34370;BME280;20635;55.812;37.560;2023-07-31T08:51:24;98758.59;;;25.60;52.31
34370;BME280;20635;55.812;37.560;2023-07-31T08:53:50;98757.78;;;25.60;52.20
34370;BME280;20635;55.812;37.560;2023-07-31T08:56:16;98762.56;;;25.59;52.25
34370;BME280;20635;55.812;37.560;2023-07-31T08:58:42;98759.75;;;25.59;52.19
34370;BME280;20635;55.812;37.560;2023-07-31T09:01:08;98767.00;;;25.60;52.26
34370;BME280;20635;55.812;37.560;2023-07-31T09:03:34;98764.56;;;25.59;52.20
34370;BME280;20635;55.812;37.560;2023-07-31T09:06:02;98767.81;;;25.61;52.20
34370;BME280;20635;55.812;37.560;2023-07-31T09:08:30;98757.78;;;25.60;52.23
34370;BME280;20635;55.812;37.560;2023-07-31T09:10:58;98774.59;;;25.60;52.12
34370;BME280;20635;55.812;37.560;2023-07-31T09:13:24;98769.81;;;25.60;52.08
34370;BME280;20635;55.812;37.560;2023-07-31T09:15:50;98765.00;;;25.61;52.03
34370;BME280;20635;55.812;37.560;2023-07-31T09:18:16;98758.59;;;25.60;52.24
34370;BME280;20635;55.812;37.560;2023-07-31T09:20:44;98766.19;;;25.60;52.02
34370;BME280;20635;55.812;37.560;2023-07-31T09:23:11;98765.81;;;25.61;51.98
34370;BME280;20635;55.812;37.560;2023-07-31T09:25:37;98761.38;;;25.60;51.86
34370;BME280;20635;55.812;37.560;2023-07-31T09:28:04;98767.81;;;25.61;51.89
34370;BME280;20635;55.812;37.560;2023-07-31T09:30:30;98769.81;;;25.60;51.94
34370;BME280;20635;55.812;37.560;2023-07-31T09:33:00;98756.59;;;25.61;51.94
34370;BME280;20635;55.812;37.560;2023-07-31T09:37:57;98758.59;;;25.60;51.81
34370;BME280;20635;55.812;37.560;2023-07-31T09:42:56;98766.63;;;25.62;51.90
34370;BME280;20635;55.812;37.560;2023-07-31T09:45:23;98756.59;;;25.61;51.80
34370;BME280;20635;55.812;37.560;2023-07-31T09:47:48;98756.59;;;25.61;51.81
34370;BME280;20635;55.812;37.560;2023-07-31T09:50:14;98748.19;;;25.61;51.96
34370;BME280;20635;55.812;37.560;2023-07-31T09:52:41;98753.78;;;25.61;51.77
34370;BME280;20635;55.812;37.560;2023-07-31T09:55:07;98754.59;;;25.61;51.61
34370;BME280;20635;55.812;37.560;2023-07-31T09:57:33;98758.22;;;25.62;51.64
34370;BME280;20635;55.812;37.560;2023-07-31T09:59:59;98761.03;;;25.62;51.53
34370;BME280;20635;55.812;37.560;2023-07-31T10:02:25;98761.88;;;25.62;51.45
34370;BME280;20635;55.812;37.560;2023-07-31T10:04:52;98761.03;;;25.62;51.55
34370;BME280;20635;55.812;37.560;2023-07-31T10:07:23;98762.69;;;25.63;51.37
34370;BME280;20635;55.812;37.560;2023-07-31T10:09:51;98759.88;;;25.63;51.40
34370;BME280;20635;55.812;37.560;2023-07-31T10:12:17;98764.66;;;25.62;51.31
34370;BME280;20635;55.812;37.560;2023-07-31T10:14:45;98769.91;;;25.64;51.23
34370;BME280;20635;55.812;37.560;2023-07-31T10:17:10;98764.31;;;25.64;51.16
34370;BME280;20635;55.812;37.560;2023-07-31T10:19:36;98768.28;;;25.63;51.19
34370;BME280;20635;55.812;37.560;2023-07-31T10:22:03;98770.72;;;25.64;51.08
34370;BME280;20635;55.812;37.560;2023-07-31T10:24:30;98772.72;;;25.64;51.23
34370;BME280;20635;55.812;37.560;2023-07-31T10:26:57;98765.13;;;25.64;51.13
34370;BME280;20635;55.812;37.560;2023-07-31T10:29:23;98771.53;;;25.65;51.01
34370;BME280;20635;55.812;37.560;2023-07-31T10:31:50;98770.72;;;25.64;51.00
34370;BME280;20635;55.812;37.560;2023-07-31T10:34:16;98767.91;;;25.64;50.97
34370;BME280;20635;55.812;37.560;2023-07-31T10:36:42;98773.53;;;25.64;50.97
34370;BME280;20635;55.812;37.560;2023-07-31T10:39:32;98766.75;;;25.65;50.94
34370;BME280;20635;55.812;37.560;2023-07-31T10:41:53;98763.94;;;25.65;50.87
34370;BME280;20635;55.812;37.560;2023-07-31T10:44:19;98764.75;;;25.66;50.83
34370;BME280;20635;55.812;37.560;2023-07-31T10:46:45;98761.94;;;25.66;50.94
34370;BME280;20635;55.812;37.560;2023-07-31T10:49:12;98762.78;;;25.66;50.88
34370;BME280;20635;55.812;37.560;2023-07-31T10:51:46;98760.78;;;25.67;50.76
34370;BME280;20635;55.812;37.560;2023-07-31T10:54:13;98756.81;;;25.68;50.60
34370;BME280;20635;55.812;37.560;2023-07-31T10:56:40;98763.22;;;25.68;50.38
34370;BME280;20635;55.812;37.560;2023-07-31T10:59:09;98764.03;;;25.69;50.18
34370;BME280;20635;55.812;37.560;2023-07-31T11:04:33;98758.44;;;25.69;50.03
34370;BME280;20635;55.812;37.560;2023-07-31T11:06:59;98762.88;;;25.70;50.01
34370;BME280;20635;55.812;37.560;2023-07-31T11:09:29;98760.06;;;25.70;50.08
34370;BME280;20635;55.812;37.560;2023-07-31T11:11:55;98761.72;;;25.71;49.83
34370;BME280;20635;55.812;37.560;2023-07-31T11:14:21;98756.91;;;25.71;49.89
34370;BME280;20635;55.812;37.560;2023-07-31T11:16:49;98766.16;;;25.72;49.94
34370;BME280;20635;55.812;37.560;2023-07-31T11:19:20;98761.72;;;25.71;49.92
34370;BME280;20635;55.812;37.560;2023-07-31T11:21:47;98764.97;;;25.73;49.79
34370;BME280;20635;55.812;37.560;2023-07-31T11:24:13;98759.72;;;25.71;49.91
34370;BME280;20635;55.812;37.560;2023-07-31T11:26:39;98760.16;;;25.73;49.68
34370;BME280;20635;55.812;37.560;2023-07-31T11:29:13;98760.66;;;25.75;49.89
34370;BME280;20635;55.812;37.560;2023-07-31T11:31:42;98751.53;;;25.78;49.95
34370;BME280;20635;55.812;37.560;2023-07-31T11:34:08;98762.03;;;25.82;50.23
34370;BME280;20635;55.812;37.560;2023-07-31T11:36:34;98758.06;;;25.83;50.21
34370;BME280;20635;55.812;37.560;2023-07-31T11:39:07;98752.06;;;25.84;50.21
34370;BME280;20635;55.812;37.560;2023-07-31T11:41:33;98760.97;;;25.86;50.38
34370;BME280;20635;55.812;37.560;2023-07-31T11:43:59;98769.84;;;25.88;50.46
34370;BME280;20635;55.812;37.560;2023-07-31T11:46:25;98762.22;;;25.89;50.33
34370;BME280;20635;55.812;37.560;2023-07-31T11:48:51;98757.09;;;25.91;50.28
34370;BME280;20635;55.812;37.560;2023-07-31T11:51:17;98763.50;;;25.91;50.50
34370;BME280;20635;55.812;37.560;2023-07-31T11:53:47;98762.34;;;25.92;50.41
34370;BME280;20635;55.812;37.560;2023-07-31T11:56:20;98754.72;;;25.93;50.59
34370;BME280;20635;55.812;37.560;2023-07-31T11:58:50;98764.44;;;25.95;50.13
34370;BME280;20635;55.812;37.560;2023-07-31T12:01:18;98762.06;;;25.97;50.31
34370;BME280;20635;55.812;37.560;2023-07-31T12:03:44;98767.34;;;25.99;50.52
34370;BME280;20635;55.812;37.560;2023-07-31T12:06:10;98770.59;;;26.01;50.35
34370;BME280;20635;55.812;37.560;2023-07-31T12:08:36;98764.63;;;26.02;50.50
34370;BME280;20635;55.812;37.560;2023-07-31T12:11:02;98765.47;;;26.03;50.52
34370;BME280;20635;55.812;37.560;2023-07-31T12:13:28;98763.47;;;26.03;50.37
34370;BME280;20635;55.812;37.560;2023-07-31T12:15:56;98775.13;;;26.05;50.50
34370;BME280;20635;55.812;37.560;2023-07-31T12:18:26;98777.94;;;26.05;50.44
34370;BME280;20635;55.812;37.560;2023-07-31T12:20:56;98771.94;;;26.07;50.49
34370;BME280;20635;55.812;37.560;2023-07-31T12:23:23;98778.41;;;26.08;50.48
34370;BME280;20635;55.812;37.560;2023-07-31T12:26:09;98781.22;;;26.08;50.58
34370;BME280;20635;55.812;37.560;2023-07-31T12:28:36;98777.22;;;26.09;50.78
34370;BME280;20635;55.812;37.560;2023-07-31T12:31:03;98785.28;;;26.10;50.75
34370;BME280;20635;55.812;37.560;2023-07-31T12:33:36;98777.69;;;26.11;50.70
34370;BME280;20635;55.812;37.560;2023-07-31T12:36:03;98789.38;;;26.13;50.74
34370;BME280;20635;55.812;37.560;2023-07-31T12:38:30;98788.19;;;26.14;50.66
34370;BME280;20635;55.812;37.560;2023-07-31T12:40:56;98786.19;;;26.14;50.69
34370;BME280;20635;55.812;37.560;2023-07-31T12:43:22;98789.81;;;26.15;50.71
34370;BME280;20635;55.812;37.560;2023-07-31T12:45:47;98786.69;;;26.16;50.84
34370;BME280;20635;55.812;37.560;2023-07-31T12:48:13;98785.84;;;26.16;50.83
34370;BME280;20635;55.812;37.560;2023-07-31T12:50:39;98785.84;;;26.16;50.80
34370;BME280;20635;55.812;37.560;2023-07-31T12:53:05;98785.84;;;26.16;50.64
34370;BME280;20635;55.812;37.560;2023-07-31T12:55:31;98795.91;;;26.17;50.67
34370;BME280;20635;55.812;37.560;2023-07-31T12:58:00;98784.69;;;26.17;50.58